This is the latest recevied weather packets stored in our database for station/object AL7BX-WX. If no packets are shown the sender has not sent any weather packets the latest 10 day(s).
| Time | Temp. | Humidity | Pressure | Rain* | Wind** | Luminosity | Snow |
|---|---|---|---|---|---|---|---|
| 1777489743 | 15.56° C | 37% | 0 hPa | 0 mm | - | - | - |
| 1777485243 | 15° C | 38% | 0 hPa | 0 mm | - | - | - |
| 1777480693 | 12.22° C | 45% | 0 hPa | 0 mm | - | - | - |
| 1777479483 | 11.11° C | 47% | 0 hPa | 0 mm | - | - | - |
| 1777478943 | 11.11° C | 48% | 0 hPa | 0 mm | - | - | - |
| 1777477503 | 10° C | 52% | 0 hPa | 0 mm | - | - | - |
| 1777476963 | 8.89° C | 53% | 0 hPa | 0 mm | - | - | - |
| 1777473903 | 6.67° C | 61% | 0 hPa | 0 mm | - | - | - |
| 1777466703 | 0.56° C | 71% | 0 hPa | 0 mm | - | - | - |
| 1777465623 | 0.56° C | 71% | 0 hPa | 0 mm | - | - | - |
| 1777465083 | 0.56° C | 70% | 0 hPa | 0 mm | - | - | - |
| 1777457343 | 3.33° C | 60% | 0 hPa | 0 mm | - | - | - |
| 1777455903 | 3.89° C | 58% | 0 hPa | 0 mm | - | - | - |
| 1777455363 | 4.44° C | 57% | 0 hPa | 0 mm | - | - | - |
| 1777449603 | 3.33° C | 59% | 0 hPa | 0 mm | - | - | - |
| 1777449243 | 3.33° C | 58% | 0 hPa | 0 mm | - | - | - |
| 1777442943 | 5° C | 55% | 0 hPa | 0 mm | - | - | - |
| 1777435203 | 7.78° C | 47% | 0 hPa | 0 mm | - | - | - |
| 1777432683 | 9.44° C | 41% | 0 hPa | 0 mm | - | - | - |
| 1777431243 | 10° C | 40% | 0 hPa | 0 mm | - | - | - |
| 1777426563 | 14.44° C | 34% | 0 hPa | 0 mm | - | - | - |
| 1777426023 | 15.56° C | 32% | 0 hPa | 0 mm | - | - | - |
| 1777424403 | 15.56° C | 33% | 0 hPa | 0 mm | - | - | - |
| 1777424043 | 15.56° C | 33% | 0 hPa | 0 mm | - | - | - |
| 1777423503 | 15.56° C | 33% | 0 hPa | 0 mm | - | - | - |
* Rain latest hour (hover to see other rain measurements)
** Current wind speed in m/s (hover to see current wind gust speed)